Kettle Island, Kentucky
Current Conditions -  °F | °C
As of 9:15 PM on Monday 22 Dec 2014 (Local Time) from K1A6 Reporting Station
Light Rain Light Rain  
Wind Chill: 48°   Ceiling: 4000
Heat Index: 48°   Visibility: 7mi
Dew Point: 46°   Wind: 0mph
Humidity: 90%   Direction: NA
Pressure: 29.83"   Gusts: NA
Location:  36.79°N, 83.61°W
Report Text: K1A6 230215Z AUTO 00000KT 7SM -RA BKN040 BKN047 OVC080 09/08 A2983 RMK AO2 T00910076
Loading
Personal Weather Stations






























Interactive Weather Map New forecast layout! Learn more

10-Day Weather Forecast

Advertisements
Track Severe Weather on mobile